Sonic Adventure (DX): Overall Rankings

Records: Times | Rings | Scores | Races | Bosses | Freestyle
Leaders: Times | Rings | Scores | Races | Bosses | Freestyle | Overall
Rank Player Percent Points Date
1 Sonicspeedruner 98.0% 349 08-15-18
2 Gamepro011 97.9% 362 08-15-18
3 DarkPolarNight 96.7% 573 08-15-18
4 Jawzun 93.1% 1201 08-15-18
5 Dashjump 91.6% 1460 08-15-18
6 DarkspinesSonic 89.7% 1788 08-15-18
7 Avento128bits 89.5% 1822 08-15-18
8 ike6252 89.3% 1859 08-15-18
9 F-Man 87.5% 2173 08-15-18
10 Coolfansonic 87.1% 2251 08-15-18
11 HyperSonic7701 84.2% 2758 08-15-18
12 TheRealShadnic 83.9% 2811 08-15-18
13 yoshifan 82.5% 3057 08-15-18
14 frankoredstrato 82.1% 3120 08-15-18
15 francisco 81.2% 3280 08-15-18
16 Marth 81.0% 3317 08-15-18
17 InferSaime 79.7% 3541 08-15-18
18 PfoSonic 79.3% 3622 08-15-18
19 Paragod 78.8% 3693 08-15-18
20 THC98 78.0% 3849 08-15-18
21 Stefan 75.6% 4268 08-15-18
22 RPGnutter 73.4% 4638 08-15-18
23 bertin 73.3% 4659 08-15-18
24 sonicam 71.2% 5033 08-15-18
25 Dekuboy 70.1% 5221 08-15-18
26 drminus 69.9% 5257 08-15-18
27 chainchumper 65.8% 5974 08-15-18
28 Combo 65.3% 6068 08-15-18
29 chaos shadow 64.7% 6176 08-15-18
30 SkyLights 64.1% 6271 08-15-18
31 Diamond 62.1% 6626 08-15-18
32 xXMegaManXx 60.9% 6827 08-15-18
33 Auriman1 59.9% 7003 08-15-18
34 OmegaDJ 59.9% 7010 08-15-18
35 GerbilSoft 59.9% 7012 08-15-18
36 magnum12 59.1% 7152 08-15-18
37 Thorn 56.9% 7533 08-15-18
38 P1 Pause 56.7% 7566 08-15-18
39 mike89 55.7% 7745 08-15-18
40 Dave Cramer 53.7% 8086 08-15-18
41 Groudon199 53.7% 8098 08-15-18
42 Parax 53.1% 8199 08-15-18
43 Shadow Jacky 52.6% 8293 08-15-18
44 Psymar 47.6% 9168 08-15-18
45 Arch 46.7% 9327 08-15-18
46 Chao_Fan 45.8% 9480 08-15-18
47 mauserman 45.1% 9607 08-15-18
48 Quartz 44.7% 9675 08-15-18
49 teamblackarms 43.9% 9809 08-15-18
50 Calfd 43.4% 9890 08-15-18
51 Psyknux 43.2% 9932 08-15-18
52 James_Bertolli 42.9% 9978 08-15-18
53 Cyan Ryan 42.7% 10019 08-15-18
54 NintenDan 42.5% 10058 08-15-18
55 Webber3000 41.9% 10167 08-15-18
56 Turbos 41.8% 10179 08-15-18
57 Ring Rush 41.7% 10200 08-15-18
58 Cream147 41.4% 10249 08-15-18
59 Fr3nZy 41.3% 10266 08-15-18
60 videogamemaster777 41.3% 10271 08-15-18
61 Siavash Tazari 41.0% 10312 08-15-18
62 buddychaos0415 40.5% 10406 08-15-18
63 SadisticMystic 40.0% 10490 08-15-18
64 ethmar 39.7% 10538 08-15-18
65 eggFL 39.2% 10637 08-15-18
66 SB737 37.7% 10902 08-15-18
67 supersonic465 37.1% 11003 08-15-18
68 supersonicfan 36.5% 11110 08-15-18
69 FuzZerd 35.4% 11305 08-15-18
70 Aitamen 34.9% 11387 08-15-18
71 elecmouse101 34.4% 11463 08-15-18
72 BigAL49 34.4% 11475 08-15-18
73 danieldude 34.4% 11478 08-15-18
74 Austinf 33.6% 11611 08-15-18
75 metanightmare22 33.2% 11679 08-15-18
76 dabestgamer 32.8% 11755 08-15-18
77 MiStEr_ShAoLiN 32.6% 11780 08-15-18
78 Andrea Ritsu 31.9% 11909 08-15-18
79 itsPersonnal 31.7% 11951 08-15-18
80 Cybrax 31.0% 12067 08-15-18
81 JamminX42 30.7% 12111 08-15-18
82 SilvertheAlmighty 30.6% 12138 08-15-18
83 Nim 30.5% 12147 08-15-18
84 Mastakirby 30.4% 12179 08-15-18
85 VMU Player Banned 28.9% 12426 08-15-18
86 Omega Rafael Santos 28.4% 12513 08-15-18
87 Staf 28.3% 12542 08-15-18
88 The T 28.0% 12599 08-15-18
89 EngiNerd 27.7% 12648 08-15-18
90 lordmetalsonic 27.2% 12736 08-15-18
91 Hipertails12 26.9% 12785 08-15-18
92 welldooder64 26.7% 12822 08-15-18
93 GreatStar 26.4% 12868 08-15-18
94 The Great Lord Mick 26.3% 12895 08-15-18
95 Sondow 26.2% 12903 08-15-18
96 LinksDarkArrows 25.9% 12955 08-15-18
97 Skylace 25.1% 13100 08-15-18
98 a_moustache 24.2% 13263 08-15-18
99 Rolken 23.6% 13368 08-15-18
100 Niczur 23.3% 13420 08-15-18
101 Xia 21.9% 13652 08-15-18
102 Spinballwizard 21.9% 13661 08-15-18
103 Kogen Player Banned 21.9% 13665 08-15-18
104 Twilisailor 21.5% 13737 08-15-18
105 f0rever_zer0 21.4% 13752 08-15-18
106 Don 21.3% 13761 08-15-18
107 Cutiefox 21.2% 13777 08-15-18
108 Game_Complete 21.2% 13778 08-15-18
109 Miles9999 21.1% 13801 08-15-18
110 andres430 20.5% 13896 08-15-18
111 Cruizer 20.4% 13928 08-15-18
112 iSonicKid2K 20.2% 13949 08-15-18
113 SADXTryHard 20.0% 13983 08-15-18
114 GarnetPrincess 19.5% 14073 08-15-18
115 N 19.3% 14112 08-15-18
116 AxlThunder 19.0% 14166 08-15-18
117 knuckles_sonic8 18.5% 14258 08-15-18
118 KinkyCadence 18.2% 14307 08-15-18
119 The Knuckles Chao 18.1% 14316 08-15-18
120 Termon 17.8% 14370 08-15-18
121 Team_Yoshi 17.8% 14373 08-15-18
122 LittleBigness 17.7% 14388 08-15-18
123 SonicWinDX 17.6% 14411 08-15-18
124 FoxBoy 17.5% 14429 08-15-18
125 CoEmpathy 17.3% 14460 08-15-18
126 Drakodan 16.8% 14549 08-15-18
127 Sonic Singularity 15.8% 14723 08-15-18
128 Pokemonmaster888 15.5% 14773 08-15-18
129 paulie9990 15.2% 14839 08-15-18
130 SilverSonic 14.5% 14949 08-15-18
131 MPit08 14.4% 14973 08-15-18
132 WeegeeZV 14.2% 15008 08-15-18
133 koinu93 14.0% 15035 08-15-18
134 Mo Player Banned 14.0% 15038 08-15-18
135 Cod4Scopes 13.6% 15116 08-15-18
136 HyperSonic64 13.6% 15119 08-15-18
137 booo95 13.4% 15148 08-15-18
138 Chawkk 13.4% 15152 08-15-18
139 Jerzia 13.3% 15158 08-15-18
140 Hunters13 13.1% 15207 08-15-18
141 SuperSonic101 13.0% 15215 08-15-18
142 Maxinfamily 12.9% 15227 08-15-18
143 Kanimayo_Jp 12.6% 15291 08-15-18
144 LilZero 12.5% 15303 08-15-18
145 BrokenArthritis 12.4% 15319 08-15-18
146 PsyBorg 12.4% 15328 08-15-18
147 Flying Fox 12.3% 15333 08-15-18
148 Therio 12.0% 15394 08-15-18
149 sonicspeed 11.8% 15425 08-15-18
150 douglas 11.7% 15439 08-15-18
151 Matt_TY 11.3% 15510 08-15-18
151 thewaytodawnnn 11.3% 15510 08-15-18
153 ModifiedMonkee 11.2% 15535 08-15-18
154 Cooljay 10.8% 15598 08-15-18
155 SuperBlitzCraig 10.7% 15622 08-15-18
156 joecoolgames 10.6% 15630 08-15-18
157 SeaWolf 10.6% 15642 08-15-18
158 videogamer1014 10.4% 15673 08-15-18
159 AC-Tygo 10.1% 15716 08-15-18
160 welshmoose05 10.1% 15723 08-15-18
161 crazy1993 9.9% 15758 08-15-18
162 OddCook 9.9% 15764 08-15-18
163 TFEC Headshot 9.8% 15779 08-15-18
164 Mcshuggets 9.7% 15802 08-15-18
165 niscool 9.4% 15843 08-15-18
166 Mariobutch 9.3% 15862 08-15-18
167 Irregular Zero 9.3% 15872 08-15-18
168 nuckrieg 9.2% 15879 08-15-18
169 SonicAD 9.1% 15902 08-15-18
170 Shadowthegreat 9.0% 15925 08-15-18
171 superjupi 8.9% 15927 08-15-18
172 SirTobbii 8.9% 15933 08-15-18
173 sonamyfan666 8.6% 15979 08-15-18
174 iarebored 8.6% 15986 08-15-18
175 Powerjohn25 8.6% 15988 08-15-18
176 SaviourDC 8.6% 15993 08-15-18
177 SonicKnuckles 8.5% 15999 08-15-18
178 Werey 8.2% 16050 08-15-18
179 adf 8.2% 16063 08-15-18
180 Megaman EXE565 7.9% 16107 08-15-18
181 ArcticDragon 7.6% 16166 08-15-18
182 Platformer 7.5% 16173 08-15-18
183 timpkmn89 7.4% 16189 08-15-18
184 wheatrich 7.4% 16205 08-15-18
185 FocusSight64 7.3% 16213 08-15-18
186 Swift Hobo 7.3% 16214 08-15-18
187 Rickyman48 7.1% 16253 08-15-18
188 KitsuneYamaro 7.0% 16271 08-15-18
189 Triseena 6.9% 16292 08-15-18
190 Destroyer121121 6.5% 16346 08-15-18
191 dShadow 6.5% 16353 08-15-18
192 CyberShadow 6.5% 16357 08-15-18
192 Starlight Sable 6.5% 16357 08-15-18
194 slade23 6.4% 16364 08-15-18
195 IsisDazs 6.3% 16390 08-15-18
196 BlankTH 6.1% 16427 08-15-18
197 Monkeh 6.0% 16435 08-15-18
198 Redd 6.0% 16450 08-15-18
199 Badlex727 5.9% 16457 08-15-18
200 SonicU260 5.8% 16470 08-15-18
201 Richied 5.8% 16485 08-15-18
202 Swinkly 5.7% 16501 08-15-18
203 DaDude 5.6% 16504 08-15-18
204 Crispian 5.6% 16507 08-15-18
205 Vicklaw 5.6% 16511 08-15-18
206 sonicd5 5.6% 16517 08-15-18
207 Zip 5.5% 16523 08-15-18
208 VeritasDL 5.2% 16581 08-15-18
209 ALundstrom10 5.2% 16587 08-15-18
210 tal39h 5.1% 16591 08-15-18
211 Kirbymon30 5.1% 16600 08-15-18
212 soniccoloursunleashed 5.0% 16625 08-15-18
213 Drflash55 4.9% 16639 08-15-18
214 Bass 4.8% 16643 08-15-18
215 neaolas 4.7% 16667 08-15-18
216 superiorsonic 4.7% 16669 08-15-18
217 Yish 4.6% 16680 08-15-18
218 zapp 4.6% 16681 08-15-18
219 UninspiredUsername 4.6% 16690 08-15-18
220 Sonicsuperstar1 4.5% 16702 08-15-18
221 gamefreak1292 4.5% 16711 08-15-18
222 Sora_yx 4.3% 16739 08-15-18
223 Chaos_Overlord 4.1% 16769 08-15-18
224 TakaRikka 4.0% 16788 08-15-18
225 Valfore 4.0% 16792 08-15-18
226 Dage4Aquatic 3.9% 16814 08-15-18
227 ShinigamiMachine 3.8% 16828 08-15-18
228 Regano1000 3.7% 16836 08-15-18
229 MK 3.7% 16845 08-15-18
230 Ace747 3.6% 16870 08-15-18
231 Jua Rever 3.4% 16894 08-15-18
232 Illidan 3.2% 16937 08-15-18
233 HHNNBBHHN 3.1% 16945 08-15-18
234 Brian_pso 3.1% 16947 08-15-18
234 Venick409 3.1% 16947 08-15-18
236 Sithwarrior26 3.1% 16950 08-15-18
237 Sm4sh 3.1% 16951 08-15-18
238 nman36 3.1% 16952 08-15-18
239 Egor305 3.0% 16973 08-15-18
240 SkyBon 3.0% 16974 08-15-18
241 ingx24 2.9% 16979 08-15-18
242 TheChaosEmeraIds 2.9% 16982 08-15-18
243 R3FR4G 2.9% 16989 08-15-18
244 Nickson98 2.9% 16990 08-15-18
245 dekki1234 2.9% 16991 08-15-18
246 FSSRandomvids 2.8% 17003 08-15-18
247 Fozer 2.8% 17006 08-15-18
248 Colomb_30 2.8% 17010 08-15-18
249 Aiko 2.7% 17023 08-15-18
249 sonic29887 2.7% 17023 08-15-18
251 TheUltraBlur 2.6% 17032 08-15-18
252 1stKirbyever 2.6% 17038 08-15-18
253 TimTH 2.5% 17054 08-15-18
254 Th4tN1nj4Turtl3 2.4% 17076 08-15-18
255 Cort_pso 2.3% 17085 08-15-18
256 ieatatsonic 2.3% 17091 08-15-18
257 Doom-9 2.2% 17099 08-15-18
257 Mariosonic15 2.2% 17099 08-15-18
259 Artie 2.2% 17115 08-15-18
259 MStitomix 2.2% 17115 08-15-18
261 HermitHelmet 2.1% 17120 08-15-18
262 SuperSonic71087 2.0% 17138 08-15-18
263 Got4n 2.0% 17141 08-15-18
264 Jose_15 1.9% 17151 08-15-18
264 Questionguy555 1.9% 17151 08-15-18
266 djmat 1.9% 17166 08-15-18
267 SuperSonicfan9595 1.8% 17171 08-15-18
268 sonicandamy Player Banned 1.7% 17188 08-15-18
269 Heroes_Hater 1.7% 17190 08-15-18
270 LancexExWx 1.7% 17197 08-15-18
271 Paixii 1.7% 17198 08-15-18
272 son1cgu1tar 1.7% 17201 08-15-18
273 Mankster101 1.6% 17216 08-15-18
274 BallzeH 1.6% 17217 08-15-18
275 BecauseWarAnvil 1.5% 17224 08-15-18
276 Jamixesa 1.5% 17229 08-15-18
277 SpiritDragon1995 1.5% 17236 08-15-18
278 Crydio 1.4% 17239 08-15-18
278 Shanekilz 1.4% 17239 08-15-18
280 MarewBFN 1.3% 17256 08-15-18
281 stanski 1.3% 17258 08-15-18
282 Sonique Hedgehog 1.3% 17265 08-15-18
283 Blue Infamy 1.2% 17274 08-15-18
284 p0ker 1.2% 17276 08-15-18
285 ArthurVGCP 1.2% 17278 08-15-18
286 ErrortheCucco 1.2% 17285 08-15-18
287 Rikum22 1.2% 17288 08-15-18
288 Arthas 1.1% 17292 08-15-18
289 sonic1001 1.1% 17296 08-15-18
290 syco1098 1.1% 17303 08-15-18
291 WingedInsignia 1.1% 17304 08-15-18
292 AJSIV 1.1% 17305 08-15-18
293 Sonic the Hedgehod16 1.0% 17308 08-15-18
294 ASINISTERTACO 1.0% 17314 08-15-18
295 sonicfan9 1.0% 17321 08-15-18
296 BlackArmsShadow 0.9% 17328 08-15-18
297 themachoman202 0.9% 17330 08-15-18
298 darkstarblaze 0.9% 17333 08-15-18
299 shadowblast63 Player Banned 0.9% 17336 08-15-18
300 Fivavoa 0.9% 17339 08-15-18
301 MastaToken 0.9% 17340 08-15-18
302 Greham Adelphis 0.9% 17341 08-15-18
302 Mr. Jones 0.9% 17341 08-15-18
304 Ben1502 0.8% 17343 08-15-18
305 arcfx1985 0.8% 17344 08-15-18
306 ptorflaxendrosis 0.8% 17347 08-15-18
306 TommyeAsY 0.8% 17347 08-15-18
308 Gvozdevik 0.8% 17351 08-15-18
308 Knuckles 0.8% 17351 08-15-18
310 FlandreScarlet9999vr 0.8% 17352 08-15-18
311 Zeldocto 0.8% 17354 08-15-18
312 KaM Mark MaK 0.8% 17358 08-15-18
313 BeeAwwb 0.8% 17360 08-15-18
314 ShadouZaHejjihoggu 0.7% 17365 08-15-18
315 Sarger001 0.7% 17370 08-15-18
316 Sonic The Star 0.7% 17373 08-15-18
317 darkersupershadic 0.7% 17374 08-15-18
317 dragondragon18 0.7% 17374 08-15-18
317 Sonic62 0.7% 17374 08-15-18
320 Sogeking 0.7% 17376 08-15-18
321 Shadygamerfreak 0.6% 17381 08-15-18
322 Grady219 0.6% 17382 08-15-18
322 SonicK100 0.6% 17382 08-15-18
324 BioShadow 0.6% 17383 08-15-18
325 Jawaah 0.6% 17388 08-15-18
326 Antek 0.6% 17391 08-15-18
327 Klaus 0.6% 17393 08-15-18
327 SilverK 0.6% 17393 08-15-18
329 SpinDashMaster 0.5% 17396 08-15-18
330 Videogamer123 0.5% 17403 08-15-18
331 oTaiIilLsS 0.4% 17418 08-15-18
332 isaihtb11 0.4% 17420 08-15-18
333 zaktu40 0.4% 17421 08-15-18
334 OhNoes! 0.4% 17422 08-15-18
335 gaara1234 0.4% 17424 08-15-18
336 Mad Andy 0.4% 17425 08-15-18
337 S-MS32X-S 0.4% 17426 08-15-18
338 gamed00d 0.4% 17427 08-15-18
339 Mister_Slick 0.3% 17438 08-15-18
340 Rush Hero 0.3% 17441 08-15-18
340 Sonic06Fan 0.3% 17441 08-15-18
342 ChaosNexuss 0.3% 17442 08-15-18
343 SonicMega167 0.3% 17447 08-15-18
344 Iwannabelink 0.2% 17448 08-15-18
345 sonknuck23 0.2% 17452 08-15-18
346 gamer1245 0.2% 17461 08-15-18
347 DanielTheFalcon 0.2% 17462 08-15-18
348 Burningskull123 0.1% 17466 08-15-18
349 Sonicontherun 0.1% 17477 08-15-18
350 Lil_Dude 0.1% 17482 08-15-18
351 antiwwe 0.0% 17483 08-15-18
352 Tyrouble 0.0% 17485 08-15-18
353 Genuine Hedgehog 0.0% 17486 08-15-18
353 SonataSpinDash 0.0% 17486 08-15-18
355 Cbwade15 0.0% 17489 08-15-18
356 MegabombBlade 0.0% 17500 08-15-18
356 neji_hyuuga 0.0% 17500 08-15-18
356 Over 0.0% 17500 08-15-18
356 sdj6707 Player Banned 0.0% 17500 08-15-18
356 Tran Sonic Fan Player Banned 0.0% 17500 08-15-18

This page is using the New Data Table System. [FUTURE]

Game ID: 3 | Category ID: 10
Hits: 73,104 | Hits This Month: 88 | DB Calls: 21 | Mem Usage: 5.48 MB | Time: 0.13s | Printable

The Sonic Center v3.9
Copyright 2003-2011 by The Sonic Center Team.